sensor_id;sensor_type;location;lat;lon;timestamp;temperature;humidity
16781;DHT22;8507;50.056;8.248;2023-02-28T00:00:32;0.80;99.90
16781;DHT22;8507;50.056;8.248;2023-02-28T00:02:57;0.80;99.90
16781;DHT22;8507;50.056;8.248;2023-02-28T00:05:25;0.90;99.90
16781;DHT22;8507;50.056;8.248;2023-02-28T00:07:50;0.90;99.90
16781;DHT22;8507;50.056;8.248;2023-02-28T00:10:19;0.80;99.90
16781;DHT22;8507;50.056;8.248;2023-02-28T00:12:47;0.90;99.90
16781;DHT22;8507;50.056;8.248;2023-02-28T00:15:12;0.90;99.90
16781;DHT22;8507;50.056;8.248;2023-02-28T00:17:38;1.00;99.90
16781;DHT22;8507;50.056;8.248;2023-02-28T00:20:05;1.00;99.90
16781;DHT22;8507;50.056;8.248;2023-02-28T00:22:42;0.90;99.90
16781;DHT22;8507;50.056;8.248;2023-02-28T00:25:10;0.90;99.90
16781;DHT22;8507;50.056;8.248;2023-02-28T00:27:37;0.90;99.90
16781;DHT22;8507;50.056;8.248;2023-02-28T00:30:03;0.90;99.90
16781;DHT22;8507;50.056;8.248;2023-02-28T00:32:29;0.90;99.90
16781;DHT22;8507;50.056;8.248;2023-02-28T00:34:55;0.90;99.90
16781;DHT22;8507;50.056;8.248;2023-02-28T00:37:21;0.90;99.90
16781;DHT22;8507;50.056;8.248;2023-02-28T00:39:47;0.90;99.90
16781;DHT22;8507;50.056;8.248;2023-02-28T00:42:12;0.90;99.90
16781;DHT22;8507;50.056;8.248;2023-02-28T00:44:38;0.80;99.90
16781;DHT22;8507;50.056;8.248;2023-02-28T00:47:04;0.90;99.90
16781;DHT22;8507;50.056;8.248;2023-02-28T00:49:29;0.80;99.90
16781;DHT22;8507;50.056;8.248;2023-02-28T00:51:55;0.80;99.90
16781;DHT22;8507;50.056;8.248;2023-02-28T00:54:22;0.70;99.90
16781;DHT22;8507;50.056;8.248;2023-02-28T00:56:47;0.70;99.90
16781;DHT22;8507;50.056;8.248;2023-02-28T00:59:14;0.60;99.90
16781;DHT22;8507;50.056;8.248;2023-02-28T01:01:41;0.60;99.90
16781;DHT22;8507;50.056;8.248;2023-02-28T01:04:07;0.60;99.90
16781;DHT22;8507;50.056;8.248;2023-02-28T01:06:32;0.50;99.90
16781;DHT22;8507;50.056;8.248;2023-02-28T01:08:59;0.50;99.90
16781;DHT22;8507;50.056;8.248;2023-02-28T01:11:25;0.40;99.90
16781;DHT22;8507;50.056;8.248;2023-02-28T01:13:51;0.40;99.90
16781;DHT22;8507;50.056;8.248;2023-02-28T01:16:17;0.40;99.90
16781;DHT22;8507;50.056;8.248;2023-02-28T01:18:43;0.40;99.90
16781;DHT22;8507;50.056;8.248;2023-02-28T01:21:12;0.30;99.90
16781;DHT22;8507;50.056;8.248;2023-02-28T01:23:39;0.30;99.90
16781;DHT22;8507;50.056;8.248;2023-02-28T01:26:19;0.30;99.90
16781;DHT22;8507;50.056;8.248;2023-02-28T01:28:45;0.30;99.90
16781;DHT22;8507;50.056;8.248;2023-02-28T01:31:11;0.30;99.90
16781;DHT22;8507;50.056;8.248;2023-02-28T01:33:37;0.30;99.90
16781;DHT22;8507;50.056;8.248;2023-02-28T01:36:06;0.20;99.90
16781;DHT22;8507;50.056;8.248;2023-02-28T01:38:32;0.10;99.90
16781;DHT22;8507;50.056;8.248;2023-02-28T01:40:58;0.20;99.90
16781;DHT22;8507;50.056;8.248;2023-02-28T01:43:26;0.20;99.90
16781;DHT22;8507;50.056;8.248;2023-02-28T01:45:53;0.10;99.90
16781;DHT22;8507;50.056;8.248;2023-02-28T01:48:22;0.10;99.90
16781;DHT22;8507;50.056;8.248;2023-02-28T01:50:49;0.10;99.90
16781;DHT22;8507;50.056;8.248;2023-02-28T01:53:19;0.20;99.90
16781;DHT22;8507;50.056;8.248;2023-02-28T01:55:48;0.20;99.90
16781;DHT22;8507;50.056;8.248;2023-02-28T01:58:16;0.30;99.90
16781;DHT22;8507;50.056;8.248;2023-02-28T02:00:42;0.30;99.90
16781;DHT22;8507;50.056;8.248;2023-02-28T02:03:13;0.30;99.90
16781;DHT22;8507;50.056;8.248;2023-02-28T02:05:41;0.20;99.90
16781;DHT22;8507;50.056;8.248;2023-02-28T02:08:12;0.20;99.90
16781;DHT22;8507;50.056;8.248;2023-02-28T02:10:42;0.20;99.90
16781;DHT22;8507;50.056;8.248;2023-02-28T02:13:27;0.20;99.90
16781;DHT22;8507;50.056;8.248;2023-02-28T02:21:16;0.00;99.90
16781;DHT22;8507;50.056;8.248;2023-02-28T02:38:09;-0.10;99.90
16781;DHT22;8507;50.056;8.248;2023-02-28T02:41:28;-0.10;99.90
16781;DHT22;8507;50.056;8.248;2023-02-28T02:43:40;-0.10;99.90
16781;DHT22;8507;50.056;8.248;2023-02-28T02:46:19;-0.10;99.90
16781;DHT22;8507;50.056;8.248;2023-02-28T02:48:46;-0.10;99.90
16781;DHT22;8507;50.056;8.248;2023-02-28T02:51:15;-0.10;99.90
16781;DHT22;8507;50.056;8.248;2023-02-28T02:53:52;-0.10;99.90
16781;DHT22;8507;50.056;8.248;2023-02-28T02:56:23;-0.10;99.90
16781;DHT22;8507;50.056;8.248;2023-02-28T02:58:51;-0.20;99.90
16781;DHT22;8507;50.056;8.248;2023-02-28T03:01:22;-0.10;99.90
16781;DHT22;8507;50.056;8.248;2023-02-28T03:04:03;-0.20;99.90
16781;DHT22;8507;50.056;8.248;2023-02-28T03:06:29;-0.20;99.90
16781;DHT22;8507;50.056;8.248;2023-02-28T03:08:55;-0.20;99.90
16781;DHT22;8507;50.056;8.248;2023-02-28T03:11:21;-0.30;99.90
16781;DHT22;8507;50.056;8.248;2023-02-28T03:24:57;-0.30;99.90
16781;DHT22;8507;50.056;8.248;2023-02-28T03:27:33;-0.30;99.90
16781;DHT22;8507;50.056;8.248;2023-02-28T03:32:51;-0.30;99.90
16781;DHT22;8507;50.056;8.248;2023-02-28T03:35:22;-0.30;99.90
16781;DHT22;8507;50.056;8.248;2023-02-28T03:37:53;-0.20;99.90
16781;DHT22;8507;50.056;8.248;2023-02-28T03:40:22;-0.20;99.90
16781;DHT22;8507;50.056;8.248;2023-02-28T03:42:54;-0.30;99.90
16781;DHT22;8507;50.056;8.248;2023-02-28T03:45:26;-0.30;99.90
16781;DHT22;8507;50.056;8.248;2023-02-28T03:48:05;-0.30;99.90
16781;DHT22;8507;50.056;8.248;2023-02-28T03:50:40;-0.30;99.90
16781;DHT22;8507;50.056;8.248;2023-02-28T03:53:27;-0.40;99.90
16781;DHT22;8507;50.056;8.248;2023-02-28T03:56:11;-0.40;99.90
16781;DHT22;8507;50.056;8.248;2023-02-28T04:01:35;-0.40;99.90
16781;DHT22;8507;50.056;8.248;2023-02-28T04:04:02;-0.40;99.90
16781;DHT22;8507;50.056;8.248;2023-02-28T04:06:31;-0.40;99.90
16781;DHT22;8507;50.056;8.248;2023-02-28T04:08:57;-0.40;99.90
16781;DHT22;8507;50.056;8.248;2023-02-28T04:13:53;-0.40;99.90
16781;DHT22;8507;50.056;8.248;2023-02-28T04:16:18;-0.40;99.90
16781;DHT22;8507;50.056;8.248;2023-02-28T04:18:44;-0.40;99.90
16781;DHT22;8507;50.056;8.248;2023-02-28T04:21:10;-0.30;99.90
16781;DHT22;8507;50.056;8.248;2023-02-28T04:23:36;-0.30;99.90
16781;DHT22;8507;50.056;8.248;2023-02-28T04:26:02;-0.30;99.90
16781;DHT22;8507;50.056;8.248;2023-02-28T04:28:27;-0.20;99.90
16781;DHT22;8507;50.056;8.248;2023-02-28T04:30:58;-0.20;99.90
16781;DHT22;8507;50.056;8.248;2023-02-28T04:33:24;-0.20;99.90
16781;DHT22;8507;50.056;8.248;2023-02-28T04:35:59;-0.20;99.90
16781;DHT22;8507;50.056;8.248;2023-02-28T04:38:25;-0.30;99.90
16781;DHT22;8507;50.056;8.248;2023-02-28T04:40:50;-0.30;99.90
16781;DHT22;8507;50.056;8.248;2023-02-28T04:43:16;-0.20;99.90
16781;DHT22;8507;50.056;8.248;2023-02-28T04:45:41;-0.30;99.90
16781;DHT22;8507;50.056;8.248;2023-02-28T04:48:07;-0.30;99.90
16781;DHT22;8507;50.056;8.248;2023-02-28T04:50:32;-0.40;99.90
16781;DHT22;8507;50.056;8.248;2023-02-28T04:52:58;-0.40;99.90
16781;DHT22;8507;50.056;8.248;2023-02-28T04:55:24;-0.40;99.90
16781;DHT22;8507;50.056;8.248;2023-02-28T04:57:49;-0.40;99.90
16781;DHT22;8507;50.056;8.248;2023-02-28T05:00:15;-0.40;99.90
16781;DHT22;8507;50.056;8.248;2023-02-28T05:02:42;-0.50;99.90
16781;DHT22;8507;50.056;8.248;2023-02-28T05:05:08;-0.40;99.90
16781;DHT22;8507;50.056;8.248;2023-02-28T05:07:33;-0.40;99.90
16781;DHT22;8507;50.056;8.248;2023-02-28T05:09:59;-0.40;99.90
16781;DHT22;8507;50.056;8.248;2023-02-28T05:12:24;-0.30;99.90
16781;DHT22;8507;50.056;8.248;2023-02-28T05:14:50;-0.40;99.90
16781;DHT22;8507;50.056;8.248;2023-02-28T05:17:15;-0.40;99.90
16781;DHT22;8507;50.056;8.248;2023-02-28T05:19:41;-0.50;99.90
16781;DHT22;8507;50.056;8.248;2023-02-28T05:22:13;-0.40;99.90
16781;DHT22;8507;50.056;8.248;2023-02-28T05:24:39;-0.40;99.90
16781;DHT22;8507;50.056;8.248;2023-02-28T05:27:05;-0.40;99.90
16781;DHT22;8507;50.056;8.248;2023-02-28T05:29:30;-0.40;99.90
16781;DHT22;8507;50.056;8.248;2023-02-28T05:31:56;-0.40;99.90
16781;DHT22;8507;50.056;8.248;2023-02-28T05:34:21;-0.30;99.90
16781;DHT22;8507;50.056;8.248;2023-02-28T05:36:47;-0.40;99.90
16781;DHT22;8507;50.056;8.248;2023-02-28T05:39:12;-0.30;99.90
16781;DHT22;8507;50.056;8.248;2023-02-28T05:41:42;-0.30;99.90
16781;DHT22;8507;50.056;8.248;2023-02-28T05:44:08;-0.40;99.90
16781;DHT22;8507;50.056;8.248;2023-02-28T05:46:34;-0.30;99.90
16781;DHT22;8507;50.056;8.248;2023-02-28T05:49:00;-0.30;99.90
16781;DHT22;8507;50.056;8.248;2023-02-28T05:51:26;-0.30;99.90
16781;DHT22;8507;50.056;8.248;2023-02-28T05:53:51;-0.30;99.90
16781;DHT22;8507;50.056;8.248;2023-02-28T05:56:17;-0.20;99.90
16781;DHT22;8507;50.056;8.248;2023-02-28T05:58:42;-0.20;99.90
16781;DHT22;8507;50.056;8.248;2023-02-28T06:03:55;-0.10;99.90
16781;DHT22;8507;50.056;8.248;2023-02-28T06:06:21;-0.10;99.90
16781;DHT22;8507;50.056;8.248;2023-02-28T06:08:46;-0.10;99.90
16781;DHT22;8507;50.056;8.248;2023-02-28T06:11:12;0.00;99.90
16781;DHT22;8507;50.056;8.248;2023-02-28T06:13:38;0.00;99.90
16781;DHT22;8507;50.056;8.248;2023-02-28T06:16:04;-0.10;99.90
16781;DHT22;8507;50.056;8.248;2023-02-28T06:18:29;-0.10;99.90
16781;DHT22;8507;50.056;8.248;2023-02-28T06:20:55;-0.10;99.90
16781;DHT22;8507;50.056;8.248;2023-02-28T06:23:21;-0.20;99.90
16781;DHT22;8507;50.056;8.248;2023-02-28T06:25:47;-0.20;99.90
16781;DHT22;8507;50.056;8.248;2023-02-28T06:28:13;-0.10;99.90
16781;DHT22;8507;50.056;8.248;2023-02-28T06:30:38;-0.20;99.90
16781;DHT22;8507;50.056;8.248;2023-02-28T06:33:04;-0.20;99.90
16781;DHT22;8507;50.056;8.248;2023-02-28T06:35:30;-0.20;99.90
16781;DHT22;8507;50.056;8.248;2023-02-28T06:37:56;-0.20;99.90
16781;DHT22;8507;50.056;8.248;2023-02-28T06:40:22;-0.10;99.90
16781;DHT22;8507;50.056;8.248;2023-02-28T06:42:47;-0.10;99.90
16781;DHT22;8507;50.056;8.248;2023-02-28T06:45:13;0.00;99.90
16781;DHT22;8507;50.056;8.248;2023-02-28T06:47:40;0.10;99.90
16781;DHT22;8507;50.056;8.248;2023-02-28T06:50:08;0.20;99.90
16781;DHT22;8507;50.056;8.248;2023-02-28T06:52:34;0.30;99.90
16781;DHT22;8507;50.056;8.248;2023-02-28T06:55:04;0.30;99.90
16781;DHT22;8507;50.056;8.248;2023-02-28T06:57:31;0.40;99.90
16781;DHT22;8507;50.056;8.248;2023-02-28T07:00:01;0.60;99.90
16781;DHT22;8507;50.056;8.248;2023-02-28T07:02:28;0.70;99.90
16781;DHT22;8507;50.056;8.248;2023-02-28T07:04:54;0.70;99.90
16781;DHT22;8507;50.056;8.248;2023-02-28T07:07:19;0.70;99.90
16781;DHT22;8507;50.056;8.248;2023-02-28T07:09:45;0.80;99.90
16781;DHT22;8507;50.056;8.248;2023-02-28T07:12:11;0.90;99.90
16781;DHT22;8507;50.056;8.248;2023-02-28T07:14:37;1.00;99.90
16781;DHT22;8507;50.056;8.248;2023-02-28T07:17:03;1.10;99.90
16781;DHT22;8507;50.056;8.248;2023-02-28T07:19:28;1.20;99.90
16781;DHT22;8507;50.056;8.248;2023-02-28T07:21:54;1.20;99.90
16781;DHT22;8507;50.056;8.248;2023-02-28T07:24:20;1.20;99.90
16781;DHT22;8507;50.056;8.248;2023-02-28T07:26:46;1.30;99.90
16781;DHT22;8507;50.056;8.248;2023-02-28T07:29:11;1.30;99.90
16781;DHT22;8507;50.056;8.248;2023-02-28T07:31:37;1.40;99.90
16781;DHT22;8507;50.056;8.248;2023-02-28T07:34:02;1.50;99.90
16781;DHT22;8507;50.056;8.248;2023-02-28T07:36:28;1.60;99.90
16781;DHT22;8507;50.056;8.248;2023-02-28T07:38:53;1.70;99.90
16781;DHT22;8507;50.056;8.248;2023-02-28T07:41:21;1.70;99.90
16781;DHT22;8507;50.056;8.248;2023-02-28T07:43:47;1.80;99.90
16781;DHT22;8507;50.056;8.248;2023-02-28T07:46:15;1.90;99.90
16781;DHT22;8507;50.056;8.248;2023-02-28T07:48:41;1.90;99.90
16781;DHT22;8507;50.056;8.248;2023-02-28T07:51:07;1.80;99.90
16781;DHT22;8507;50.056;8.248;2023-02-28T07:53:33;2.00;99.90
16781;DHT22;8507;50.056;8.248;2023-02-28T07:56:00;2.00;99.90
16781;DHT22;8507;50.056;8.248;2023-02-28T07:58:26;2.10;99.90
16781;DHT22;8507;50.056;8.248;2023-02-28T08:00:52;2.30;99.90
16781;DHT22;8507;50.056;8.248;2023-02-28T08:03:20;2.20;99.90
16781;DHT22;8507;50.056;8.248;2023-02-28T08:05:47;2.40;99.90
16781;DHT22;8507;50.056;8.248;2023-02-28T08:08:13;2.60;99.90
16781;DHT22;8507;50.056;8.248;2023-02-28T08:10:38;2.60;99.90
16781;DHT22;8507;50.056;8.248;2023-02-28T08:13:04;2.50;99.90
16781;DHT22;8507;50.056;8.248;2023-02-28T08:15:30;2.50;99.90
16781;DHT22;8507;50.056;8.248;2023-02-28T08:17:55;2.50;99.90
16781;DHT22;8507;50.056;8.248;2023-02-28T08:20:22;2.40;99.90
16781;DHT22;8507;50.056;8.248;2023-02-28T08:22:48;2.40;99.90
16781;DHT22;8507;50.056;8.248;2023-02-28T08:25:13;2.50;99.90
16781;DHT22;8507;50.056;8.248;2023-02-28T08:27:39;2.50;99.90
16781;DHT22;8507;50.056;8.248;2023-02-28T08:30:05;2.50;99.90
16781;DHT22;8507;50.056;8.248;2023-02-28T08:32:32;2.70;99.90
16781;DHT22;8507;50.056;8.248;2023-02-28T08:34:58;2.70;99.90
16781;DHT22;8507;50.056;8.248;2023-02-28T08:37:24;2.80;99.90
16781;DHT22;8507;50.056;8.248;2023-02-28T08:39:49;2.90;99.90
16781;DHT22;8507;50.056;8.248;2023-02-28T08:42:15;2.90;99.90
16781;DHT22;8507;50.056;8.248;2023-02-28T08:44:40;3.00;99.90
16781;DHT22;8507;50.056;8.248;2023-02-28T08:47:06;2.70;99.90
16781;DHT22;8507;50.056;8.248;2023-02-28T08:49:32;3.00;99.90
16781;DHT22;8507;50.056;8.248;2023-02-28T08:51:57;2.90;99.90
16781;DHT22;8507;50.056;8.248;2023-02-28T08:54:24;2.90;99.90
16781;DHT22;8507;50.056;8.248;2023-02-28T08:56:49;3.10;99.90
16781;DHT22;8507;50.056;8.248;2023-02-28T08:59:15;3.50;99.90
16781;DHT22;8507;50.056;8.248;2023-02-28T09:01:41;3.00;99.90
16781;DHT22;8507;50.056;8.248;2023-02-28T09:04:07;2.90;99.90
16781;DHT22;8507;50.056;8.248;2023-02-28T09:06:34;3.20;99.90
16781;DHT22;8507;50.056;8.248;2023-02-28T09:09:00;3.30;99.90
16781;DHT22;8507;50.056;8.248;2023-02-28T09:11:27;3.60;99.90
16781;DHT22;8507;50.056;8.248;2023-02-28T09:13:53;3.20;99.90
16781;DHT22;8507;50.056;8.248;2023-02-28T09:16:20;3.30;99.90
16781;DHT22;8507;50.056;8.248;2023-02-28T09:18:46;2.90;99.90
16781;DHT22;8507;50.056;8.248;2023-02-28T09:21:14;3.10;99.90
16781;DHT22;8507;50.056;8.248;2023-02-28T09:23:41;3.10;99.90
16781;DHT22;8507;50.056;8.248;2023-02-28T09:26:11;3.30;99.90
16781;DHT22;8507;50.056;8.248;2023-02-28T09:28:38;3.40;99.90
16781;DHT22;8507;50.056;8.248;2023-02-28T09:31:03;3.40;99.90
16781;DHT22;8507;50.056;8.248;2023-02-28T09:33:30;3.60;99.90
16781;DHT22;8507;50.056;8.248;2023-02-28T09:36:00;3.60;99.90
16781;DHT22;8507;50.056;8.248;2023-02-28T09:38:27;3.50;99.90
16781;DHT22;8507;50.056;8.248;2023-02-28T09:40:58;3.80;99.90
16781;DHT22;8507;50.056;8.248;2023-02-28T09:43:29;3.70;99.90
16781;DHT22;8507;50.056;8.248;2023-02-28T09:46:32;3.90;99.90
16781;DHT22;8507;50.056;8.248;2023-02-28T09:49:02;3.90;99.90
16781;DHT22;8507;50.056;8.248;2023-02-28T09:51:39;3.30;99.90
16781;DHT22;8507;50.056;8.248;2023-02-28T09:54:14;3.30;99.90
16781;DHT22;8507;50.056;8.248;2023-02-28T09:56:45;3.50;99.90
16781;DHT22;8507;50.056;8.248;2023-02-28T09:59:29;3.60;99.90
16781;DHT22;8507;50.056;8.248;2023-02-28T10:04:51;3.50;99.90
16781;DHT22;8507;50.056;8.248;2023-02-28T10:07:47;3.50;99.90
16781;DHT22;8507;50.056;8.248;2023-02-28T10:10:39;3.60;99.90
16781;DHT22;8507;50.056;8.248;2023-02-28T10:13:24;3.20;99.90
16781;DHT22;8507;50.056;8.248;2023-02-28T10:15:56;3.50;99.90
16781;DHT22;8507;50.056;8.248;2023-02-28T10:18:31;3.80;99.90
16781;DHT22;8507;50.056;8.248;2023-02-28T10:20:59;3.80;99.90
16781;DHT22;8507;50.056;8.248;2023-02-28T10:23:28;4.30;99.90
16781;DHT22;8507;50.056;8.248;2023-02-28T10:26:08;4.30;99.90
16781;DHT22;8507;50.056;8.248;2023-02-28T10:28:35;4.10;99.90
16781;DHT22;8507;50.056;8.248;2023-02-28T10:31:01;4.30;99.90
16781;DHT22;8507;50.056;8.248;2023-02-28T10:35:55;3.40;99.90
16781;DHT22;8507;50.056;8.248;2023-02-28T10:38:31;3.90;99.90
16781;DHT22;8507;50.056;8.248;2023-02-28T10:41:09;4.00;99.90
16781;DHT22;8507;50.056;8.248;2023-02-28T10:43:37;3.90;99.90
16781;DHT22;8507;50.056;8.248;2023-02-28T10:46:11;4.50;99.90
16781;DHT22;8507;50.056;8.248;2023-02-28T10:48:43;4.30;99.90
16781;DHT22;8507;50.056;8.248;2023-02-28T10:51:11;4.50;99.90
16781;DHT22;8507;50.056;8.248;2023-02-28T10:58:54;4.20;99.90
16781;DHT22;8507;50.056;8.248;2023-02-28T11:01:21;4.20;99.90
16781;DHT22;8507;50.056;8.248;2023-02-28T11:03:48;3.90;99.90
16781;DHT22;8507;50.056;8.248;2023-02-28T11:06:29;4.10;99.90
16781;DHT22;8507;50.056;8.248;2023-02-28T11:08:58;3.80;99.90
16781;DHT22;8507;50.056;8.248;2023-02-28T11:11:27;3.90;99.90
16781;DHT22;8507;50.056;8.248;2023-02-28T11:13:57;4.30;99.90
16781;DHT22;8507;50.056;8.248;2023-02-28T11:16:32;4.90;99.90
16781;DHT22;8507;50.056;8.248;2023-02-28T11:18:59;5.20;99.90
16781;DHT22;8507;50.056;8.248;2023-02-28T11:21:31;5.20;99.90
16781;DHT22;8507;50.056;8.248;2023-02-28T11:24:07;5.20;99.90
16781;DHT22;8507;50.056;8.248;2023-02-28T11:26:43;5.40;99.90
16781;DHT22;8507;50.056;8.248;2023-02-28T11:29:19;5.00;99.90
16781;DHT22;8507;50.056;8.248;2023-02-28T11:34:32;4.70;99.90
16781;DHT22;8507;50.056;8.248;2023-02-28T11:36:59;4.60;99.90
16781;DHT22;8507;50.056;8.248;2023-02-28T11:39:26;4.20;99.90
16781;DHT22;8507;50.056;8.248;2023-02-28T11:44:56;4.20;99.90
16781;DHT22;8507;50.056;8.248;2023-02-28T11:47:38;4.00;99.90
16781;DHT22;8507;50.056;8.248;2023-02-28T11:53:01;3.90;99.90
16781;DHT22;8507;50.056;8.248;2023-02-28T11:55:42;3.90;99.90
16781;DHT22;8507;50.056;8.248;2023-02-28T12:11:59;4.90;99.90
16781;DHT22;8507;50.056;8.248;2023-02-28T12:23:41;4.70;99.90
16781;DHT22;8507;50.056;8.248;2023-02-28T12:28:57;5.50;99.90
16781;DHT22;8507;50.056;8.248;2023-02-28T12:31:27;5.00;99.90
16781;DHT22;8507;50.056;8.248;2023-02-28T12:34:00;5.20;99.90
16781;DHT22;8507;50.056;8.248;2023-02-28T12:36:27;4.80;99.90
16781;DHT22;8507;50.056;8.248;2023-02-28T12:38:59;5.20;99.90
16781;DHT22;8507;50.056;8.248;2023-02-28T12:41:41;5.50;99.90
16781;DHT22;8507;50.056;8.248;2023-02-28T12:44:35;5.40;99.90
16781;DHT22;8507;50.056;8.248;2023-02-28T12:47:05;5.10;99.90
16781;DHT22;8507;50.056;8.248;2023-02-28T12:49:43;5.20;99.90
16781;DHT22;8507;50.056;8.248;2023-02-28T12:52:12;5.20;99.90
16781;DHT22;8507;50.056;8.248;2023-02-28T12:55:10;5.20;99.90
16781;DHT22;8507;50.056;8.248;2023-02-28T12:58:01;5.30;99.90
16781;DHT22;8507;50.056;8.248;2023-02-28T13:00:36;5.30;99.90
16781;DHT22;8507;50.056;8.248;2023-02-28T13:08:53;5.60;99.90
16781;DHT22;8507;50.056;8.248;2023-02-28T13:11:53;5.00;99.90
16781;DHT22;8507;50.056;8.248;2023-02-28T13:22:05;5.70;99.90
16781;DHT22;8507;50.056;8.248;2023-02-28T13:24:50;5.80;99.90
16781;DHT22;8507;50.056;8.248;2023-02-28T13:29:51;5.50;99.90
16781;DHT22;8507;50.056;8.248;2023-02-28T13:32:29;5.30;99.90
16781;DHT22;8507;50.056;8.248;2023-02-28T13:39:49;5.50;99.90
16781;DHT22;8507;50.056;8.248;2023-02-28T13:42:34;5.30;99.90
16781;DHT22;8507;50.056;8.248;2023-02-28T13:47:51;5.60;99.90
16781;DHT22;8507;50.056;8.248;2023-02-28T13:53:01;5.80;99.90
16781;DHT22;8507;50.056;8.248;2023-02-28T13:55:34;5.70;99.90
16781;DHT22;8507;50.056;8.248;2023-02-28T14:06:32;5.90;99.90
16781;DHT22;8507;50.056;8.248;2023-02-28T14:09:31;6.20;99.90
16781;DHT22;8507;50.056;8.248;2023-02-28T14:11:59;5.80;99.90
16781;DHT22;8507;50.056;8.248;2023-02-28T14:17:15;5.60;99.90
16781;DHT22;8507;50.056;8.248;2023-02-28T14:19:44;5.40;99.90
16781;DHT22;8507;50.056;8.248;2023-02-28T14:25:40;5.50;99.90
16781;DHT22;8507;50.056;8.248;2023-02-28T14:30:58;5.70;99.90
16781;DHT22;8507;50.056;8.248;2023-02-28T14:33:34;5.60;99.90
16781;DHT22;8507;50.056;8.248;2023-02-28T14:36:07;5.40;99.90
16781;DHT22;8507;50.056;8.248;2023-02-28T14:38:51;5.60;99.90
16781;DHT22;8507;50.056;8.248;2023-02-28T14:41:39;5.40;99.90
16781;DHT22;8507;50.056;8.248;2023-02-28T14:44:21;5.60;99.90
16781;DHT22;8507;50.056;8.248;2023-02-28T14:46:50;5.40;99.90
16781;DHT22;8507;50.056;8.248;2023-02-28T14:49:29;5.50;99.90
16781;DHT22;8507;50.056;8.248;2023-02-28T14:52:15;5.50;99.90
16781;DHT22;8507;50.056;8.248;2023-02-28T14:54:43;5.30;99.90
16781;DHT22;8507;50.056;8.248;2023-02-28T14:57:27;5.20;99.90
16781;DHT22;8507;50.056;8.248;2023-02-28T15:00:14;5.20;99.90
16781;DHT22;8507;50.056;8.248;2023-02-28T15:02:41;5.20;99.90
16781;DHT22;8507;50.056;8.248;2023-02-28T15:07:39;5.30;99.90
16781;DHT22;8507;50.056;8.248;2023-02-28T15:10:21;5.30;99.90
16781;DHT22;8507;50.056;8.248;2023-02-28T15:12:56;5.20;99.90
16781;DHT22;8507;50.056;8.248;2023-02-28T15:15:49;5.20;99.90
16781;DHT22;8507;50.056;8.248;2023-02-28T15:20:47;5.20;99.90
16781;DHT22;8507;50.056;8.248;2023-02-28T15:23:14;5.20;99.90
16781;DHT22;8507;50.056;8.248;2023-02-28T15:25:41;5.30;99.90
16781;DHT22;8507;50.056;8.248;2023-02-28T15:28:15;5.30;99.90
16781;DHT22;8507;50.056;8.248;2023-02-28T15:30:55;5.40;99.90
16781;DHT22;8507;50.056;8.248;2023-02-28T15:33:29;5.30;99.90
16781;DHT22;8507;50.056;8.248;2023-02-28T15:36:16;5.20;99.90
16781;DHT22;8507;50.056;8.248;2023-02-28T15:38:50;5.10;99.90
16781;DHT22;8507;50.056;8.248;2023-02-28T15:41:27;5.10;99.90
16781;DHT22;8507;50.056;8.248;2023-02-28T15:44:28;5.00;99.90
16781;DHT22;8507;50.056;8.248;2023-02-28T15:47:03;4.90;99.90
16781;DHT22;8507;50.056;8.248;2023-02-28T15:49:40;4.80;99.90
16781;DHT22;8507;50.056;8.248;2023-02-28T15:52:13;4.80;99.90
16781;DHT22;8507;50.056;8.248;2023-02-28T15:54:41;4.70;99.90
16781;DHT22;8507;50.056;8.248;2023-02-28T15:57:17;4.70;99.90
16781;DHT22;8507;50.056;8.248;2023-02-28T15:59:50;4.80;99.90
16781;DHT22;8507;50.056;8.248;2023-02-28T16:02:20;4.80;99.90
16781;DHT22;8507;50.056;8.248;2023-02-28T16:07:32;4.80;99.90
16781;DHT22;8507;50.056;8.248;2023-02-28T16:09:58;4.70;99.90
16781;DHT22;8507;50.056;8.248;2023-02-28T16:12:32;4.70;99.90
16781;DHT22;8507;50.056;8.248;2023-02-28T16:15:00;4.60;99.90
16781;DHT22;8507;50.056;8.248;2023-02-28T16:17:31;4.50;99.90
16781;DHT22;8507;50.056;8.248;2023-02-28T16:19:58;4.50;99.90
16781;DHT22;8507;50.056;8.248;2023-02-28T16:22:23;4.50;99.90
16781;DHT22;8507;50.056;8.248;2023-02-28T16:24:49;4.50;99.90
16781;DHT22;8507;50.056;8.248;2023-02-28T16:27:42;4.40;99.90
16781;DHT22;8507;50.056;8.248;2023-02-28T16:30:25;4.30;99.90
16781;DHT22;8507;50.056;8.248;2023-02-28T16:32:51;4.30;99.90
16781;DHT22;8507;50.056;8.248;2023-02-28T16:35:18;4.20;99.90
16781;DHT22;8507;50.056;8.248;2023-02-28T16:37:44;4.20;99.90
16781;DHT22;8507;50.056;8.248;2023-02-28T16:40:21;4.20;99.90
16781;DHT22;8507;50.056;8.248;2023-02-28T16:42:52;4.10;99.90
16781;DHT22;8507;50.056;8.248;2023-02-28T16:45:23;4.00;99.90
16781;DHT22;8507;50.056;8.248;2023-02-28T16:47:50;4.00;99.90
16781;DHT22;8507;50.056;8.248;2023-02-28T16:50:20;3.90;99.90
16781;DHT22;8507;50.056;8.248;2023-02-28T16:52:46;3.90;99.90
16781;DHT22;8507;50.056;8.248;2023-02-28T16:55:12;3.80;99.90
16781;DHT22;8507;50.056;8.248;2023-02-28T16:57:38;3.80;99.90
16781;DHT22;8507;50.056;8.248;2023-02-28T17:00:06;3.70;99.90
16781;DHT22;8507;50.056;8.248;2023-02-28T17:02:33;3.60;99.90
16781;DHT22;8507;50.056;8.248;2023-02-28T17:04:59;3.70;99.90
16781;DHT22;8507;50.056;8.248;2023-02-28T17:07:25;3.60;99.90
16781;DHT22;8507;50.056;8.248;2023-02-28T17:09:51;3.50;99.90
16781;DHT22;8507;50.056;8.248;2023-02-28T17:12:16;3.50;99.90
16781;DHT22;8507;50.056;8.248;2023-02-28T17:14:42;3.50;99.90
16781;DHT22;8507;50.056;8.248;2023-02-28T17:17:13;3.40;99.90
16781;DHT22;8507;50.056;8.248;2023-02-28T17:19:40;3.40;99.90
16781;DHT22;8507;50.056;8.248;2023-02-28T17:22:08;3.30;99.90
16781;DHT22;8507;50.056;8.248;2023-02-28T17:24:34;3.30;99.90
16781;DHT22;8507;50.056;8.248;2023-02-28T17:26:59;3.30;99.90
16781;DHT22;8507;50.056;8.248;2023-02-28T17:29:25;3.20;99.90
16781;DHT22;8507;50.056;8.248;2023-02-28T17:31:50;3.30;99.90
16781;DHT22;8507;50.056;8.248;2023-02-28T17:34:16;3.20;99.90
16781;DHT22;8507;50.056;8.248;2023-02-28T17:36:44;3.20;99.90
16781;DHT22;8507;50.056;8.248;2023-02-28T17:39:12;3.20;99.90
16781;DHT22;8507;50.056;8.248;2023-02-28T17:41:40;3.10;99.90
16781;DHT22;8507;50.056;8.248;2023-02-28T17:44:06;3.10;99.90
16781;DHT22;8507;50.056;8.248;2023-02-28T17:46:31;3.10;99.90
16781;DHT22;8507;50.056;8.248;2023-02-28T17:48:57;3.00;99.90
16781;DHT22;8507;50.056;8.248;2023-02-28T17:51:24;3.00;99.90
16781;DHT22;8507;50.056;8.248;2023-02-28T17:53:50;3.00;99.90
16781;DHT22;8507;50.056;8.248;2023-02-28T17:56:22;2.90;99.90
16781;DHT22;8507;50.056;8.248;2023-02-28T17:58:48;2.90;99.90
16781;DHT22;8507;50.056;8.248;2023-02-28T18:01:14;2.80;99.90
16781;DHT22;8507;50.056;8.248;2023-02-28T18:03:40;2.80;99.90
16781;DHT22;8507;50.056;8.248;2023-02-28T18:06:06;2.80;99.90
16781;DHT22;8507;50.056;8.248;2023-02-28T18:08:34;2.80;99.90
16781;DHT22;8507;50.056;8.248;2023-02-28T18:11:00;2.80;99.90
16781;DHT22;8507;50.056;8.248;2023-02-28T18:13:26;2.80;99.90
16781;DHT22;8507;50.056;8.248;2023-02-28T18:15:53;2.90;99.90
16781;DHT22;8507;50.056;8.248;2023-02-28T18:18:19;2.90;99.90
16781;DHT22;8507;50.056;8.248;2023-02-28T18:20:44;2.80;99.90
16781;DHT22;8507;50.056;8.248;2023-02-28T18:23:10;2.80;99.90
16781;DHT22;8507;50.056;8.248;2023-02-28T18:25:35;2.90;99.90
16781;DHT22;8507;50.056;8.248;2023-02-28T18:28:03;2.80;99.90
16781;DHT22;8507;50.056;8.248;2023-02-28T18:30:32;2.70;99.90